Time;durP1;ratioP1;P1;durP2;ratioP2;P2;SDS_P1;SDS_P2;PMS_P1;PMS_P2;Temp;Humidity;BMP_temperature;BMP_pressure;BME280_temperature;BME280_humidity;BME280_pressure;Samples;Min_cycle;Max_cycle;Signal;HPM_P1;HPM_P2
2022/06/13 00:01:19;;;;;;;6.03;4.63;;;17.00;99.90;;;;;;6103408;23;20528;-93
2022/06/13 00:03:46;;;;;;;8.45;4.85;;;17.00;99.90;;;;;;6105564;23;20166;-91
2022/06/13 00:06:12;;;;;;;7.47;5.43;;;17.00;99.90;;;;;;6114410;23;20586;-92
2022/06/13 00:08:38;;;;;;;6.80;4.78;;;16.90;99.90;;;;;;6109572;23;20229;-93
2022/06/13 00:11:09;;;;;;;7.05;4.90;;;16.70;99.90;;;;;;6110365;23;20178;-93
2022/06/13 00:13:35;;;;;;;6.03;5.18;;;16.80;99.90;;;;;;6103491;23;20221;-93
2022/06/13 00:16:01;;;;;;;7.05;4.72;;;16.90;99.90;;;;;;6127095;23;20155;-91
2022/06/13 00:18:27;;;;;;;5.90;4.70;;;16.80;99.90;;;;;;6102709;23;20220;-92
2022/06/13 00:20:54;;;;;;;7.22;5.25;;;16.80;99.90;;;;;;6128515;23;20158;-92
2022/06/13 00:23:22;;;;;;;8.00;4.95;;;16.70;99.90;;;;;;6128803;23;20220;-93
2022/06/13 00:25:47;;;;;;;5.93;4.43;;;16.70;99.90;;;;;;6129149;23;20154;-93
2022/06/13 00:28:14;;;;;;;5.47;4.50;;;16.60;99.90;;;;;;6127298;23;20203;-93
2022/06/13 00:30:40;;;;;;;5.97;4.40;;;16.70;99.90;;;;;;6128383;23;20197;-93
2022/06/13 00:33:05;;;;;;;5.47;4.63;;;16.60;99.90;;;;;;6128392;23;20158;-92
2022/06/13 00:35:31;;;;;;;7.30;5.30;;;16.50;99.90;;;;;;6106969;23;20162;-94
2022/06/13 00:37:57;;;;;;;5.82;4.68;;;;;;;;;;6137277;23;20158;-94
2022/06/13 00:40:22;;;;;;;6.97;4.57;;;16.50;99.90;;;;;;6134517;23;20164;-93
2022/06/13 00:42:49;;;;;;;8.25;4.60;;;16.50;99.90;;;;;;6103247;23;20578;-93
2022/06/13 00:45:17;;;;;;;5.28;4.55;;;16.40;99.90;;;;;;6128388;23;20150;-93
2022/06/13 00:47:45;;;;;;;5.45;4.25;;;16.40;99.90;;;;;;6128854;23;20635;-93
2022/06/13 00:50:34;;;;;;;7.82;5.22;;;16.30;99.90;;;;;;6130078;23;20229;-93
2022/06/13 00:53:12;;;;;;;7.40;4.60;;;16.20;99.90;;;;;;6115416;23;20158;-94
2022/06/13 00:55:47;;;;;;;6.03;4.85;;;16.00;99.90;;;;;;6117108;23;20601;-94
2022/06/13 00:58:14;;;;;;;7.10;5.03;;;16.20;99.90;;;;;;6116327;23;20177;-94
2022/06/13 01:00:43;;;;;;;7.93;5.72;;;16.30;99.90;;;;;;6116594;23;20164;-94
2022/06/13 01:03:10;;;;;;;6.03;4.40;;;16.10;99.90;;;;;;6116255;23;20240;-95
2022/06/13 01:05:40;;;;;;;5.78;4.75;;;16.10;99.90;;;;;;6112228;23;20240;-93
2022/06/13 01:08:08;;;;;;;6.70;4.88;;;16.10;99.90;;;;;;6111649;23;20201;-93
2022/06/13 01:14:10;;;;;;;6.25;4.75;;;16.00;99.90;;;;;;6129212;23;20181;-93
2022/06/13 01:16:54;;;;;;;7.85;5.07;;;16.00;99.90;;;;;;6106410;23;20165;-93
2022/06/13 01:19:49;;;;;;;8.13;4.05;;;15.90;99.90;;;;;;6103712;23;20452;-94
2022/06/13 01:22:26;;;;;;;5.78;4.60;;;15.90;99.90;;;;;;6102834;23;20482;-94
2022/06/13 01:25:14;;;;;;;5.03;4.30;;;15.90;99.90;;;;;;6103061;23;20162;-94
2022/06/13 01:27:58;;;;;;;6.40;4.70;;;15.80;99.90;;;;;;6128403;23;20208;-93
2022/06/13 01:31:01;;;;;;;5.40;4.28;;;15.70;99.90;;;;;;6140440;23;20209;-94
2022/06/13 01:33:56;;;;;;;6.13;4.55;;;15.70;99.90;;;;;;6106467;23;20157;-94
2022/06/13 01:37:21;;;;;;;5.63;4.63;;;15.70;99.90;;;;;;6102739;23;20165;-94
2022/06/13 01:40:03;;;;;;;7.95;4.45;;;15.60;99.90;;;;;;6098350;23;20164;-94
2022/06/13 01:42:48;;;;;;;7.38;4.80;;;15.70;99.90;;;;;;6139691;23;20202;-94
2022/06/13 01:45:49;;;;;;;5.93;4.15;;;15.60;99.90;;;;;;6127201;23;20209;-92
2022/06/13 01:48:48;;;;;;;5.55;4.20;;;15.50;99.90;;;;;;6115043;23;20267;-93
2022/06/13 01:51:22;;;;;;;6.28;4.25;;;15.40;99.90;;;;;;6105726;23;20177;-93
2022/06/13 01:54:42;;;;;;;4.80;4.35;;;15.40;99.90;;;;;;6108286;23;20154;-93
2022/06/13 01:57:24;;;;;;;5.70;4.18;;;15.40;99.90;;;;;;6044420;23;20226;-94
2022/06/13 02:00:01;;;;;;;6.65;4.63;;;15.40;99.90;;;;;;6121585;23;20221;-94
2022/06/13 02:02:56;;;;;;;5.65;3.90;;;15.40;99.90;;;;;;6105651;23;20514;-94
2022/06/13 02:05:41;;;;;;;5.18;3.97;;;15.50;99.90;;;;;;6105811;23;20201;-93
2022/06/13 02:08:15;;;;;;;6.00;4.47;;;15.40;99.90;;;;;;6139016;23;20184;-94
2022/06/13 02:10:47;;;;;;;5.78;4.25;;;14.70;99.90;;;;;;6121003;23;20142;-94
2022/06/13 02:13:19;;;;;;;20.33;4.88;;;15.10;99.90;;;;;;6154141;23;20170;-90
2022/06/13 02:15:50;;;;;;;7.15;4.70;;;15.40;99.90;;;;;;6153944;23;20147;-93
2022/06/13 02:18:31;;;;;;;4.15;3.72;;;15.30;99.90;;;;;;6147721;23;20178;-94
2022/06/13 02:21:06;;;;;;;5.43;4.22;;;15.50;99.90;;;;;;6127102;23;20251;-95
2022/06/13 02:23:38;;;;;;;5.13;4.30;;;15.20;99.90;;;;;;6129178;23;20157;-93
2022/06/13 02:26:10;;;;;;;6.97;4.45;;;15.40;99.90;;;;;;6113994;23;20161;-92
2022/06/13 02:28:44;;;;;;;4.45;3.72;;;15.30;99.90;;;;;;6133872;23;20657;-93
2022/06/13 02:31:27;;;;;;;5.30;4.18;;;15.30;99.90;;;;;;6138184;23;20190;-92
2022/06/13 02:34:01;;;;;;;6.35;4.13;;;15.30;99.90;;;;;;6116357;23;20157;-93
2022/06/13 02:36:40;;;;;;;7.22;3.65;;;15.30;99.90;;;;;;6140241;23;20193;-94
2022/06/13 02:39:20;;;;;;;6.68;4.65;;;15.30;99.90;;;;;;6106997;23;20246;-91
2022/06/13 02:41:57;;;;;;;6.22;4.53;;;15.40;99.90;;;;;;6134788;23;20142;-93
2022/06/13 02:44:30;;;;;;;6.32;4.28;;;15.40;99.90;;;;;;6105697;23;20160;-92
2022/06/13 02:47:15;;;;;;;4.88;4.13;;;15.40;99.90;;;;;;6150532;23;20200;-93
2022/06/13 02:50:08;;;;;;;5.93;4.70;;;15.40;99.90;;;;;;6158851;23;20184;-93
2022/06/13 02:52:59;;;;;;;5.55;3.97;;;15.40;99.90;;;;;;6159480;23;20207;-93
2022/06/13 02:55:25;;;;;;;5.82;4.60;;;15.40;99.90;;;;;;6165885;23;20177;-91
2022/06/13 02:58:29;;;;;;;6.53;4.45;;;15.40;99.90;;;;;;6136348;23;20243;-94
2022/06/13 03:01:12;;;;;;;6.65;4.90;;;15.40;99.90;;;;;;6158475;23;20161;-92
2022/06/13 03:03:56;;;;;;;7.15;5.13;;;15.40;99.90;;;;;;6156810;23;20152;-91
2022/06/13 03:06:56;;;;;;;8.00;5.53;;;15.40;99.90;;;;;;6156573;23;20156;-90
2022/06/13 03:09:33;;;;;;;6.30;4.82;;;15.50;99.90;;;;;;6122382;23;20307;-92
2022/06/13 03:12:09;;;;;;;7.60;5.10;;;15.50;99.90;;;;;;6157294;23;20153;-92
2022/06/13 03:14:50;;;;;;;7.65;5.63;;;15.60;99.90;;;;;;6157320;23;20150;-92
2022/06/13 03:17:33;;;;;;;8.32;6.07;;;15.60;99.90;;;;;;6158691;23;20161;-95
2022/06/13 03:20:09;;;;;;;8.75;5.32;;;15.70;99.90;;;;;;6159298;23;20585;-91
2022/06/13 03:23:04;;;;;;;12.13;6.72;;;15.70;99.90;;;;;;6159254;23;20164;-93
2022/06/13 03:25:44;;;;;;;9.48;6.60;;;15.80;99.90;;;;;;6155807;23;20157;-95
2022/06/13 03:28:29;;;;;;;6.90;5.60;;;15.80;99.90;;;;;;6160692;23;20177;-94
2022/06/13 03:31:15;;;;;;;7.82;6.00;;;15.90;99.90;;;;;;6161381;23;20145;-94
2022/06/13 03:33:46;;;;;;;10.82;5.53;;;15.90;99.90;;;;;;6160973;23;20638;-93
2022/06/13 03:36:31;;;;;;;9.10;5.68;;;16.00;99.90;;;;;;6163640;23;20218;-93
2022/06/13 03:39:10;;;;;;;9.27;5.57;;;16.10;99.90;;;;;;6164829;23;20149;-94
2022/06/13 03:41:40;;;;;;;6.70;5.45;;;16.10;99.90;;;;;;6162747;23;20224;-95
2022/06/13 03:44:14;;;;;;;5.88;4.43;;;16.30;99.90;;;;;;6169077;23;20211;-95
2022/06/13 03:47:14;;;;;;;6.95;4.95;;;16.40;99.90;;;;;;6169365;23;20219;-93
2022/06/13 03:49:49;;;;;;;8.10;5.50;;;16.50;99.90;;;;;;6168301;23;20164;-92
2022/06/13 03:52:16;;;;;;;7.05;5.53;;;16.60;99.90;;;;;;6174700;23;20220;-89
2022/06/13 03:54:48;;;;;;;5.85;4.75;;;16.60;99.90;;;;;;6173686;23;20672;-93
2022/06/13 03:57:24;;;;;;;8.05;5.32;;;16.80;99.90;;;;;;6174028;23;20156;-93
2022/06/13 03:59:57;;;;;;;6.20;5.10;;;16.90;99.90;;;;;;6175214;23;20132;-93
2022/06/13 04:02:32;;;;;;;5.78;4.82;;;16.90;99.90;;;;;;6176963;23;20126;-93
2022/06/13 04:04:58;;;;;;;6.07;4.30;;;17.10;99.90;;;;;;6176272;23;20163;-93
2022/06/13 04:07:27;;;;;;;6.35;4.47;;;17.10;99.90;;;;;;6176793;23;20177;-93
2022/06/13 04:09:55;;;;;;;6.03;4.72;;;17.20;99.90;;;;;;6181751;23;20149;-94
2022/06/13 04:12:43;;;;;;;5.60;4.15;;;17.30;99.90;;;;;;6182026;23;20161;-92
2022/06/13 04:15:15;;;;;;;5.65;4.65;;;17.40;99.90;;;;;;6181223;23;20217;-94
2022/06/13 04:18:18;;;;;;;6.18;4.90;;;17.50;99.90;;;;;;6182523;23;20217;-94
2022/06/13 04:20:53;;;;;;;6.63;4.55;;;17.60;99.90;;;;;;6183221;23;20133;-95
2022/06/13 04:23:28;;;;;;;5.97;4.80;;;17.70;99.90;;;;;;6182680;23;20200;-88
2022/06/13 04:26:27;;;;;;;7.95;4.50;;;17.80;99.90;;;;;;6184576;23;20132;-93
2022/06/13 04:29:13;;;;;;;6.10;4.68;;;17.90;99.90;;;;;;6160667;23;20188;-95
2022/06/13 04:31:40;;;;;;;6.25;4.60;;;18.40;99.90;;;;;;6183651;23;20137;-94
2022/06/13 04:34:14;;;;;;;5.95;3.92;;;18.10;99.90;;;;;;6182602;23;20160;-92
2022/06/13 04:36:42;;;;;;;4.93;3.92;;;18.30;99.90;;;;;;6181581;23;20153;-92
2022/06/13 04:39:10;;;;;;;4.90;3.47;;;18.40;99.90;;;;;;6183113;23;20153;-93
2022/06/13 04:41:41;;;;;;;4.20;3.75;;;18.50;99.90;;;;;;6183347;23;20161;-92
2022/06/13 04:44:10;;;;;;;6.88;3.78;;;18.60;99.90;;;;;;6180437;23;20177;-92
2022/06/13 04:46:37;;;;;;;6.32;3.88;;;18.80;99.90;;;;;;6170225;23;20181;-91
2022/06/13 04:49:07;;;;;;;6.72;4.40;;;18.90;99.90;;;;;;6177984;23;20157;-92
2022/06/13 04:51:39;;;;;;;5.60;4.05;;;19.20;99.90;;;;;;6180331;23;20150;-92
2022/06/13 04:54:23;;;;;;;6.20;3.78;;;19.10;99.90;;;;;;6179721;23;20142;-91
2022/06/13 04:56:49;;;;;;;4.80;3.65;;;19.20;99.90;;;;;;6180725;23;20149;-91
2022/06/13 04:59:16;;;;;;;6.00;3.47;;;19.30;99.90;;;;;;6169564;23;20651;-91
2022/06/13 05:01:49;;;;;;;4.50;3.50;;;19.30;99.90;;;;;;6159732;23;20153;-91
2022/06/13 05:04:19;;;;;;;10.43;3.47;;;19.60;99.90;;;;;;6165485;23;20149;-89
2022/06/13 05:06:51;;;;;;;8.15;3.03;;;19.60;99.90;;;;;;6158951;23;20145;-89
2022/06/13 05:24:54;;;;;;;4.80;3.60;;;20.30;99.90;;;;;;6157036;23;20223;-87
2022/06/13 05:27:20;;;;;;;5.15;3.55;;;;;;;;;;6145237;23;20189;-86
2022/06/13 05:29:46;;;;;;;4.57;3.33;;;;;;;;;;6135311;23;20276;-87
2022/06/13 05:32:14;;;;;;;7.28;3.20;;;20.40;99.90;;;;;;6153258;23;20180;-86
2022/06/13 05:34:42;;;;;;;3.72;2.72;;;20.40;99.90;;;;;;6173903;23;20204;-88
2022/06/13 05:45:24;;;;;;;3.25;2.90;;;20.80;99.90;;;;;;6182807;23;20223;-90
2022/06/13 05:47:56;;;;;;;4.95;3.53;;;20.80;99.90;;;;;;6113580;23;20478;-90
2022/06/13 05:50:32;;;;;;;5.80;3.25;;;20.90;99.90;;;;;;6126578;23;20214;-87
2022/06/13 05:53:00;;;;;;;3.42;2.67;;;;;;;;;;6117244;23;20162;-89
2022/06/13 05:55:26;;;;;;;6.25;3.33;;;;;;;;;;6108873;23;20154;-89
2022/06/13 05:57:52;;;;;;;4.50;3.47;;;21.10;99.90;;;;;;6126724;23;20168;-90
2022/06/13 06:00:29;;;;;;;5.15;2.80;;;21.30;99.90;;;;;;6106642;23;20154;-88
2022/06/13 06:02:55;;;;;;;6.95;2.67;;;;;;;;;;6115340;23;20161;-87
2022/06/13 06:05:21;;;;;;;4.63;2.80;;;;;;;;;;6119124;23;20166;-87
2022/06/13 06:07:47;;;;;;;3.65;2.80;;;;;;;;;;6108748;23;20724;-88
2022/06/13 06:10:19;;;;;;;4.30;2.70;;;21.60;99.90;;;;;;6107306;23;20240;-88
2022/06/13 06:12:45;;;;;;;9.35;2.88;;;;;;;;;;6141593;23;20177;-88
2022/06/13 06:15:12;;;;;;;5.65;2.50;;;;;;;;;;6109436;23;20158;-90
2022/06/13 06:17:38;;;;;;;4.32;2.72;;;;;;;;;;6106319;23;20166;-88
2022/06/13 06:20:04;;;;;;;3.42;2.90;;;;;;;;;;6129550;23;20153;-88
2022/06/13 06:22:30;;;;;;;6.32;3.13;;;;;;;;;;6103751;23;20164;-88
2022/06/13 06:24:56;;;;;;;4.10;2.70;;;;;;;;;;6101927;23;20169;-88
2022/06/13 06:27:22;;;;;;;3.90;2.42;;;;;;;;;;6103309;23;20190;-89
2022/06/13 06:29:48;;;;;;;4.00;2.88;;;;;;;;;;6101536;23;20166;-90
2022/06/13 06:32:21;;;;;;;3.53;2.92;;;22.30;99.90;;;;;;6104700;23;20220;-88
2022/06/13 06:34:47;;;;;;;5.65;3.05;;;;;;;;;;6107418;23;20737;-89
2022/06/13 06:37:16;;;;;;;4.22;3.13;;;;;;;;;;6101312;23;20181;-87
2022/06/13 06:39:42;;;;;;;5.45;2.72;;;;;;;;;;6128936;23;20526;-89
2022/06/13 06:42:10;;;;;;;3.33;2.45;;;22.40;99.90;;;;;;6104640;23;20612;-90
2022/06/13 06:44:36;;;;;;;4.13;2.35;;;;;;;;;;6105316;23;20154;-90
2022/06/13 06:47:02;;;;;;;3.67;2.70;;;;;;;;;;6113420;23;20190;-88
2022/06/13 06:49:34;;;;;;;8.50;2.63;;;;;;;;;;6110498;23;20170;-90
2022/06/13 06:52:05;;;;;;;4.43;2.70;;;22.90;99.90;;;;;;6161808;23;20157;-89
2022/06/13 07:00:04;;;;;;;2.58;2.38;;;23.20;99.90;;;;;;6159215;23;20229;-88
2022/06/13 07:02:30;;;;;;;3.53;2.40;;;;;;;;;;6113605;23;20243;-88
2022/06/13 07:05:05;;;;;;;5.00;2.17;;;23.20;99.90;;;;;;6159122;23;20347;-88
2022/06/13 07:07:31;;;;;;;2.25;2.00;;;;;;;;;;6132169;23;20509;-89
2022/06/13 07:09:57;;;;;;;2.53;2.30;;;;;;;;;;6131325;23;20223;-88
2022/06/13 07:12:28;;;;;;;3.63;2.70;;;;;;;;;;6131652;23;20162;-88
2022/06/13 07:14:54;;;;;;;4.05;2.67;;;;;;;;;;6157579;23;20200;-88
2022/06/13 07:17:25;;;;;;;3.45;2.22;;;;;;;;;;6135484;23;20161;-88
2022/06/13 07:19:54;;;;;;;3.55;2.58;;;;;;;;;;6162043;23;20149;-87
2022/06/13 07:22:22;;;;;;;2.65;2.30;;;23.60;99.90;;;;;;6160552;23;20180;-89
2022/06/13 07:24:48;;;;;;;2.75;2.55;;;;;;;;;;6132372;23;20180;-89
2022/06/13 07:27:15;;;;;;;4.60;2.60;;;;;;;;;;6135906;23;20192;-89
2022/06/13 07:29:43;;;;;;;3.85;2.85;;;23.70;99.90;;;;;;6160651;23;20161;-88
2022/06/13 07:32:20;;;;;;;2.40;2.20;;;23.70;99.90;;;;;;6108995;23;20170;-88
2022/06/13 07:34:49;;;;;;;2.58;2.38;;;23.70;99.90;;;;;;6131730;23;20196;-87
2022/06/13 07:40:09;;;;;;;3.50;2.65;;;;;;;;;;6162896;23;20225;-87
2022/06/13 07:42:47;;;;;;;3.40;2.50;;;23.70;99.90;;;;;;6159082;23;20161;-89
2022/06/13 07:45:17;;;;;;;2.40;2.20;;;23.60;99.90;;;;;;6131713;23;20161;-89
2022/06/13 07:47:43;;;;;;;2.53;2.33;;;;;;;;;;6133003;23;20181;-87
2022/06/13 07:50:14;;;;;;;2.40;1.98;;;23.50;99.90;;;;;;6108194;23;20209;-87
2022/06/13 07:52:40;;;;;;;3.13;2.22;;;;;;;;;;6160293;23;20150;-88
2022/06/13 07:55:12;;;;;;;1.80;1.70;;;;;;;;;;6157641;23;20157;-87
2022/06/13 07:57:40;;;;;;;2.58;2.00;;;;;;;;;;6157862;23;20161;-89
2022/06/13 08:00:10;;;;;;;3.08;2.72;;;23.90;99.90;;;;;;6133247;23;20589;-88
2022/06/13 08:02:38;;;;;;;3.00;2.33;;;23.90;99.90;;;;;;6109294;23;20162;-88
2022/06/13 08:05:05;;;;;;;2.50;2.30;;;;;;;;;;6134095;23;20188;-90
2022/06/13 08:07:36;;;;;;;2.65;2.45;;;24.10;99.90;;;;;;6157148;23;20636;-90
2022/06/13 08:10:07;;;;;;;2.88;2.28;;;;;;;;;;6135310;23;20184;-88
2022/06/13 08:12:33;;;;;;;2.42;2.20;;;;;;;;;;6162045;23;20229;-88
2022/06/13 08:14:59;;;;;;;3.63;2.40;;;;;;;;;;6164484;23;20212;-88
2022/06/13 08:17:25;;;;;;;2.63;2.00;;;;;;;;;;6137026;23;20528;-87
2022/06/13 08:19:52;;;;;;;2.42;2.22;;;;;;;;;;6157133;23;20604;-87
2022/06/13 08:22:18;;;;;;;2.25;2.08;;;;;;;;;;6157380;23;20172;-88
2022/06/13 08:24:46;;;;;;;2.67;2.25;;;24.50;99.90;;;;;;6132936;23;20612;-89
2022/06/13 08:27:13;;;;;;;2.72;2.42;;;;;;;;;;6134739;23;20728;-87
2022/06/13 08:29:43;;;;;;;2.72;2.28;;;24.50;99.90;;;;;;6155804;23;20165;-88
2022/06/13 08:32:15;;;;;;;3.63;2.55;;;24.60;99.90;;;;;;6106196;23;20613;-89
2022/06/13 08:34:49;;;;;;;2.90;2.40;;;24.60;99.90;;;;;;6131077;23;20477;-89
2022/06/13 08:37:18;;;;;;;2.72;2.45;;;;;;;;;;6132353;23;20203;-88
2022/06/13 08:39:46;;;;;;;2.40;2.20;;;;;;;;;;6155721;23;20585;-89
2022/06/13 08:42:43;;;;;;;2.85;2.30;;;24.90;99.90;;;;;;6155443;23;20161;-88
2022/06/13 08:45:45;;;;;;;2.50;2.30;;;25.10;99.90;;;;;;6130348;23;20187;-89
2022/06/13 08:48:51;;;;;;;2.53;2.28;;;25.10;99.90;;;;;;6137118;23;20724;-89
2022/06/13 08:51:44;;;;;;;4.18;2.30;;;25.20;99.90;;;;;;6098119;23;20199;-87
2022/06/13 08:54:24;;;;;;;4.45;2.55;;;25.20;99.90;;;;;;6115030;23;20533;-87
2022/06/13 08:56:52;;;;;;;2.92;2.63;;;25.20;99.90;;;;;;6131148;23;20176;-88
2022/06/13 08:59:52;;;;;;;4.50;3.00;;;25.10;99.90;;;;;;6157191;23;20158;-88
2022/06/13 09:02:33;;;;;;;3.13;2.30;;;25.20;99.90;;;;;;6123477;23;20184;-89
2022/06/13 09:05:37;;;;;;;3.28;2.85;;;25.30;99.90;;;;;;6131787;23;20180;-87
2022/06/13 09:08:17;;;;;;;3.10;2.72;;;25.30;99.90;;;;;;6157417;23;20204;-88
2022/06/13 09:10:59;;;;;;;4.75;3.00;;;25.30;99.90;;;;;;6163361;23;20161;-89
2022/06/13 09:13:53;;;;;;;5.68;2.28;;;25.30;99.90;;;;;;6160350;23;20162;-88
2022/06/13 09:16:19;;;;;;;2.40;2.20;;;;;;;;;;6157221;23;20299;-87
2022/06/13 09:18:55;;;;;;;3.10;2.60;;;25.40;99.90;;;;;;6134154;23;20169;-88
2022/06/13 09:21:45;;;;;;;2.40;2.15;;;25.50;99.90;;;;;;6135163;23;20157;-86
2022/06/13 09:24:21;;;;;;;3.47;2.15;;;25.70;99.90;;;;;;6159442;23;20192;-87
2022/06/13 09:26:53;;;;;;;2.40;2.10;;;26.10;98.10;;;;;;6132765;23;20465;-88
2022/06/13 09:29:53;;;;;;;;;;;;;;;;;;;;;
2022/06/13 09:32:41;;;;;;;3.42;2.38;;;26.50;94.70;;;;;;6164201;23;20177;-89
2022/06/13 09:35:16;;;;;;;3.38;2.75;;;26.30;94.80;;;;;;6139148;23;20189;-87
2022/06/13 09:37:48;;;;;;;3.10;2.50;;;26.00;95.60;;;;;;6136848;23;20199;-88
2022/06/13 09:40:20;;;;;;;2.47;2.28;;;26.10;96.90;;;;;;6159084;23;20142;-86
2022/06/13 09:42:46;;;;;;;3.80;2.50;;;;;;;;;;6159963;23;20142;-87
2022/06/13 09:45:55;;;;;;;2.90;2.40;;;25.80;96.50;;;;;;6158341;23;20193;-87
2022/06/13 09:49:03;;;;;;;3.22;2.80;;;25.40;95.60;;;;;;6046564;23;20191;-87
2022/06/13 09:51:56;;;;;;;3.10;2.00;;;25.20;95.20;;;;;;6069583;23;20204;-88
2022/06/13 09:54:44;;;;;;;4.97;2.28;;;25.10;95.30;;;;;;6158622;23;20161;-87
2022/06/13 09:57:42;;;;;;;3.00;2.20;;;25.20;95.80;;;;;;6131671;23;20161;-87
2022/06/13 10:00:36;;;;;;;;;;;;;;;;;;;;;
2022/06/13 10:03:50;;;;;;;;;;;;;;;;;;;;;
2022/06/13 10:06:36;;;;;;;2.55;2.22;;;25.40;97.00;;;;;;6131935;23;20241;-88
2022/06/13 10:09:40;;;;;;;2.72;2.13;;;25.50;97.30;;;;;;6135315;23;20207;-89
2022/06/13 10:12:13;;;;;;;2.30;2.10;;;25.40;96.50;;;;;;6136022;23;20153;-88
2022/06/13 10:14:48;;;;;;;7.32;2.65;;;25.50;97.00;;;;;;6154994;23;20205;-88
2022/06/13 10:17:53;;;;;;;2.50;2.17;;;25.50;97.00;;;;;;6156375;23;20596;-86
2022/06/13 10:20:37;;;;;;;3.78;2.80;;;25.80;97.30;;;;;;6131745;23;20155;-88
2022/06/13 10:24:03;;;;;;;;;;;;;;;;;;;;;
2022/06/13 10:27:01;;;;;;;3.15;2.30;;;26.80;97.70;;;;;;6159102;23;20167;-87
2022/06/13 10:30:04;;;;;;;2.63;2.42;;;26.60;94.30;;;;;;6135089;23;20173;-89
2022/06/13 10:33:08;;;;;;;4.68;2.85;;;26.60;92.30;;;;;;6119175;23;20152;-88
2022/06/13 10:35:36;;;;;;;2.80;2.30;;;;;;;;;;6157347;23;20137;-87
2022/06/13 10:38:24;;;;;;;3.00;2.50;;;26.90;92.90;;;;;;6167147;23;20216;-89
2022/06/13 10:40:51;;;;;;;2.70;2.47;;;26.90;90.10;;;;;;6166205;23;20169;-89
2022/06/13 10:43:17;;;;;;;5.97;2.65;;;26.90;90.80;;;;;;6141545;23;20157;-89
2022/06/13 10:45:44;;;;;;;3.90;2.55;;;26.80;90.80;;;;;;6144634;23;20225;-90
2022/06/13 10:48:28;;;;;;;3.13;2.35;;;26.90;92.80;;;;;;6145676;23;20192;-91
2022/06/13 10:51:01;;;;;;;2.80;2.08;;;26.30;91.90;;;;;;6145575;23;20206;-86
2022/06/13 10:53:52;;;;;;;3.25;2.83;;;26.20;92.40;;;;;;6141305;23;20197;-88
2022/06/13 10:56:53;;;;;;;3.40;2.70;;;26.30;92.50;;;;;;6146672;23;20157;-87
2022/06/13 10:59:28;;;;;;;2.72;2.38;;;26.30;91.90;;;;;;6143338;23;20532;-87
2022/06/13 11:02:10;;;;;;;3.30;3.00;;;26.30;92.80;;;;;;6141487;23;20156;-89
2022/06/13 11:04:49;;;;;;;3.63;3.30;;;26.00;93.80;;;;;;6133656;23;20589;-88
2022/06/13 11:07:45;;;;;;;;;;;;;;;;;;;;;
2022/06/13 11:10:43;;;;;;;3.53;3.22;;;25.90;96.10;;;;;;6143538;23;20195;-89
2022/06/13 11:13:45;;;;;;;3.65;3.33;;;26.20;96.00;;;;;;6143207;23;20193;-87
2022/06/13 11:25:52;;;;;;;3.78;3.17;;;25.70;95.30;;;;;;6142168;23;20168;-88
2022/06/13 11:29:02;;;;;;;3.17;2.75;;;25.50;95.20;;;;;;6145052;23;20547;-89
2022/06/13 11:31:55;;;;;;;3.88;3.28;;;25.30;97.20;;;;;;6147105;23;20169;-90
2022/06/13 11:34:41;;;;;;;3.95;3.25;;;25.30;95.80;;;;;;6142835;23;20211;-90
2022/06/13 11:37:54;;;;;;;4.95;3.35;;;25.30;96.50;;;;;;6143032;23;20173;-90
2022/06/13 11:40:36;;;;;;;;;;;;;;;;;;;;;
2022/06/13 11:43:12;;;;;;;;;;;;;;;;;;;;;
2022/06/13 11:46:18;;;;;;;3.50;2.70;;;25.10;97.60;;;;;;6160013;23;20212;-90
2022/06/13 11:49:09;;;;;;;4.18;3.33;;;25.00;96.80;;;;;;6131398;23;20185;-89
2022/06/13 11:51:52;;;;;;;;;;;;;;;;;;;;;
2022/06/13 11:54:29;;;;;;;7.03;3.67;;;24.10;99.90;;;;;;6165509;23;20534;-91
2022/06/13 11:57:17;;;;;;;5.13;2.42;;;22.30;99.90;;;;;;6157189;23;20618;-90
2022/06/13 11:59:53;;;;;;;1.60;1.50;;;20.30;99.90;;;;;;6157653;23;20607;-88
2022/06/13 12:02:27;;;;;;;6.20;2.80;;;18.30;99.90;;;;;;6156196;23;20186;-89
2022/06/13 12:05:01;;;;;;;4.97;3.30;;;17.10;99.90;;;;;;6131805;23;20184;-88
2022/06/13 12:07:30;;;;;;;4.57;3.75;;;16.60;99.90;;;;;;6131130;23;20264;-88
2022/06/13 12:10:00;;;;;;;5.78;4.82;;;16.60;99.90;;;;;;6155736;23;20304;-87
2022/06/13 12:12:42;;;;;;;7.35;4.88;;;16.60;99.90;;;;;;6155423;23;20280;-87
2022/06/13 12:15:12;;;;;;;7.38;5.90;;;16.70;99.90;;;;;;6155796;23;20480;-87
2022/06/13 12:18:00;;;;;;;8.23;6.55;;;16.70;99.90;;;;;;6130499;23;20165;-89
2022/06/13 12:20:32;;;;;;;7.45;5.82;;;16.70;99.90;;;;;;6130419;23;20240;-88
2022/06/13 12:23:07;;;;;;;8.75;5.45;;;16.70;99.90;;;;;;6155074;23;20169;-86
2022/06/13 12:25:47;;;;;;;8.88;6.57;;;16.80;99.90;;;;;;6129730;23;20573;-87
2022/06/13 12:28:21;;;;;;;8.98;6.03;;;16.90;99.90;;;;;;6157063;23;20224;-91
2022/06/13 12:31:03;;;;;;;6.45;5.22;;;16.80;99.90;;;;;;6154949;23;20164;-86
2022/06/13 12:33:46;;;;;;;6.57;4.93;;;17.10;99.90;;;;;;6154580;23;20243;-88
2022/06/13 12:36:49;;;;;;;7.95;5.10;;;17.20;99.90;;;;;;6155364;23;20161;-90
2022/06/13 12:39:40;;;;;;;5.65;4.00;;;17.30;99.90;;;;;;6117069;23;20615;-90
2022/06/13 12:42:06;;;;;;;4.63;3.47;;;;;;;;;;6156102;23;20729;-88
2022/06/13 12:45:09;;;;;;;6.72;4.13;;;17.00;99.90;;;;;;6140567;23;20145;-90
2022/06/13 12:47:57;;;;;;;5.55;4.05;;;17.00;99.90;;;;;;6137692;23;20225;-90
2022/06/13 12:50:26;;;;;;;6.50;4.35;;;;;;;;;;6137647;23;20303;-90
2022/06/13 12:53:36;;;;;;;6.75;4.85;;;16.80;99.90;;;;;;6142114;23;20664;-91
2022/06/13 12:56:20;;;;;;;6.50;4.75;;;16.70;99.90;;;;;;6108047;23;20141;-90
2022/06/13 12:59:11;;;;;;;8.18;5.82;;;16.70;99.90;;;;;;6176769;23;20173;-93
2022/06/13 13:01:43;;;;;;;5.57;4.68;;;16.60;99.90;;;;;;6165018;23;20161;-92
2022/06/13 13:04:38;;;;;;;7.10;4.82;;;16.50;99.90;;;;;;6158768;23;20569;-91
2022/06/13 13:07:07;;;;;;;6.78;5.07;;;16.50;99.90;;;;;;6156782;23;20138;-89
2022/06/13 13:09:57;;;;;;;5.88;4.15;;;16.50;99.90;;;;;;6167292;23;20472;-89
2022/06/13 13:13:01;;;;;;;6.47;4.28;;;16.40;99.90;;;;;;6165653;23;20161;-88
2022/06/13 13:16:04;;;;;;;6.90;4.20;;;16.40;99.90;;;;;;6166205;23;20148;-89
2022/06/13 13:18:54;;;;;;;6.22;3.90;;;13.80;99.90;;;;;;6163964;23;20161;-88
2022/06/13 13:21:25;;;;;;;5.18;4.07;;;17.00;99.90;;;;;;6166398;23;20207;-87
2022/06/13 13:24:13;;;;;;;6.22;4.43;;;16.80;99.90;;;;;;6166386;23;20145;-88
2022/06/13 13:26:41;;;;;;;9.90;4.90;;;;;;;;;;6161853;23;20157;-88
2022/06/13 13:29:31;;;;;;;4.30;3.75;;;17.10;99.90;;;;;;6135980;23;20628;-87
2022/06/13 13:32:24;;;;;;;5.50;4.32;;;17.60;99.90;;;;;;6137744;23;20183;-85
2022/06/13 13:35:22;;;;;;;5.95;3.30;;;17.60;99.90;;;;;;6135681;23;20165;-87
2022/06/13 13:38:07;;;;;;;5.43;3.70;;;17.70;99.90;;;;;;6159954;23;20293;-87
2022/06/13 13:40:43;;;;;;;4.20;3.38;;;17.80;99.90;;;;;;6161633;23;20475;-88
2022/06/13 13:43:36;;;;;;;4.47;2.60;;;17.70;99.90;;;;;;6138886;23;20161;-88
2022/06/13 13:46:39;;;;;;;3.13;2.35;;;17.70;99.90;;;;;;6166943;23;20208;-87
2022/06/13 13:49:17;;;;;;;4.20;2.50;;;17.80;99.90;;;;;;6165306;23;20197;-88
2022/06/13 13:52:13;;;;;;;3.42;2.67;;;17.90;99.90;;;;;;6167849;23;20161;-89
2022/06/13 13:54:53;;;;;;;2.70;2.25;;;17.90;99.90;;;;;;6173298;23;20707;-87
2022/06/13 13:57:42;;;;;;;2.90;2.45;;;18.20;99.90;;;;;;6170920;23;20601;-86
2022/06/13 14:00:52;;;;;;;2.50;2.30;;;18.30;99.90;;;;;;6151790;23;20157;-87
2022/06/13 14:03:50;;;;;;;2.42;2.00;;;20.50;99.90;;;;;;6142904;23;20168;-88
2022/06/13 14:06:32;;;;;;;4.53;3.25;;;18.30;99.90;;;;;;6178869;23;20621;-86
2022/06/13 14:09:01;;;;;;;2.60;2.30;;;18.50;99.90;;;;;;6172386;23;20633;-88
2022/06/13 14:12:08;;;;;;;5.18;2.47;;;18.40;99.90;;;;;;6173252;23;20581;-88
2022/06/13 14:14:49;;;;;;;3.90;3.05;;;16.20;99.90;;;;;;6158593;23;20161;-88
2022/06/13 14:17:46;;;;;;;2.72;2.28;;;18.40;99.90;;;;;;6167618;23;20153;-87
2022/06/13 14:20:29;;;;;;;3.22;2.10;;;18.50;99.90;;;;;;6162055;23;20165;-86
2022/06/13 14:23:03;;;;;;;2.38;1.92;;;18.50;99.90;;;;;;6155895;23;20240;-86
2022/06/13 14:25:40;;;;;;;2.58;2.20;;;18.50;99.90;;;;;;6157031;23;20208;-86
2022/06/13 14:28:17;;;;;;;2.55;1.90;;;18.60;99.90;;;;;;6157798;23;20181;-87
2022/06/13 14:31:04;;;;;;;3.88;2.42;;;18.60;99.90;;;;;;6160282;23;20156;-86
2022/06/13 14:36:48;;;;;;;2.58;1.98;;;18.80;99.90;;;;;;6156602;23;20227;-86
2022/06/13 14:40:00;;;;;;;2.97;1.50;;;18.80;99.90;;;;;;6129312;23;20304;-88
2022/06/13 14:42:45;;;;;;;2.67;2.15;;;18.70;99.90;;;;;;6065077;23;20163;-87
2022/06/13 14:45:21;;;;;;;2.95;1.85;;;18.90;99.90;;;;;;6041881;23;20330;-87
2022/06/13 14:48:14;;;;;;;1.63;1.42;;;19.10;99.90;;;;;;6118944;23;20184;-87
2022/06/13 14:51:00;;;;;;;1.33;1.23;;;19.40;99.90;;;;;;6181627;23;20189;-87
2022/06/13 14:53:35;;;;;;;2.17;1.80;;;19.00;99.90;;;;;;6157831;23;20161;-88
2022/06/13 14:56:07;;;;;;;1.65;1.48;;;19.00;99.90;;;;;;6158119;23;20161;-87
2022/06/13 14:58:50;;;;;;;1.40;1.30;;;19.00;99.90;;;;;;6134121;23;20188;-89
2022/06/13 15:01:37;;;;;;;1.48;1.38;;;17.50;99.90;;;;;;6161838;23;20236;-88
2022/06/13 15:04:07;;;;;;;1.52;1.20;;;18.70;99.90;;;;;;6143514;23;20172;-88